sensor_id;sensor_type;location;lat;lon;timestamp;temperature;humidity
52731;DHT22;38624;53.242;6.974;2023-05-16T00:01:21;8.90;99.90
52731;DHT22;38624;53.242;6.974;2023-05-16T00:03:47;8.80;99.90
52731;DHT22;38624;53.242;6.974;2023-05-16T00:06:13;8.90;99.90
52731;DHT22;38624;53.242;6.974;2023-05-16T00:08:39;8.80;99.90
52731;DHT22;38624;53.242;6.974;2023-05-16T00:11:05;8.70;99.90
52731;DHT22;38624;53.242;6.974;2023-05-16T00:13:31;8.60;99.90
52731;DHT22;38624;53.242;6.974;2023-05-16T00:15:56;8.60;99.90
52731;DHT22;38624;53.242;6.974;2023-05-16T00:18:23;8.60;99.90
52731;DHT22;38624;53.242;6.974;2023-05-16T00:20:50;8.60;99.90
52731;DHT22;38624;53.242;6.974;2023-05-16T00:23:16;8.60;99.90
52731;DHT22;38624;53.242;6.974;2023-05-16T00:25:42;8.50;99.90
52731;DHT22;38624;53.242;6.974;2023-05-16T00:28:07;8.50;99.90
52731;DHT22;38624;53.242;6.974;2023-05-16T00:30:33;8.50;99.90
52731;DHT22;38624;53.242;6.974;2023-05-16T00:32:59;8.50;99.90
52731;DHT22;38624;53.242;6.974;2023-05-16T00:35:25;8.40;99.90
52731;DHT22;38624;53.242;6.974;2023-05-16T00:37:51;8.40;99.90
52731;DHT22;38624;53.242;6.974;2023-05-16T00:40:17;8.40;99.90
52731;DHT22;38624;53.242;6.974;2023-05-16T00:42:42;8.30;99.90
52731;DHT22;38624;53.242;6.974;2023-05-16T00:45:08;8.30;99.90
52731;DHT22;38624;53.242;6.974;2023-05-16T00:47:35;8.20;99.90
52731;DHT22;38624;53.242;6.974;2023-05-16T00:50:00;8.20;99.90
52731;DHT22;38624;53.242;6.974;2023-05-16T00:52:26;8.20;99.90
52731;DHT22;38624;53.242;6.974;2023-05-16T00:54:52;8.20;99.90
52731;DHT22;38624;53.242;6.974;2023-05-16T00:57:18;8.20;99.90
52731;DHT22;38624;53.242;6.974;2023-05-16T00:59:44;8.40;99.90
52731;DHT22;38624;53.242;6.974;2023-05-16T01:02:11;8.40;99.90
52731;DHT22;38624;53.242;6.974;2023-05-16T01:04:37;8.50;99.90
52731;DHT22;38624;53.242;6.974;2023-05-16T01:07:02;8.40;99.90
52731;DHT22;38624;53.242;6.974;2023-05-16T01:09:28;8.40;99.90
52731;DHT22;38624;53.242;6.974;2023-05-16T01:27:28;8.50;99.90
52731;DHT22;38624;53.242;6.974;2023-05-16T01:29:54;8.40;99.90
52731;DHT22;38624;53.242;6.974;2023-05-16T01:32:20;8.30;99.90
52731;DHT22;38624;53.242;6.974;2023-05-16T01:34:47;8.30;99.90
52731;DHT22;38624;53.242;6.974;2023-05-16T01:37:18;8.20;99.90
52731;DHT22;38624;53.242;6.974;2023-05-16T01:39:44;8.20;99.90
52731;DHT22;38624;53.242;6.974;2023-05-16T01:42:12;8.20;99.90
52731;DHT22;38624;53.242;6.974;2023-05-16T01:47:13;8.00;99.90
52731;DHT22;38624;53.242;6.974;2023-05-16T01:52:14;8.00;99.90
52731;DHT22;38624;53.242;6.974;2023-05-16T01:54:42;7.90;99.90
52731;DHT22;38624;53.242;6.974;2023-05-16T01:57:08;7.90;99.90
52731;DHT22;38624;53.242;6.974;2023-05-16T01:59:34;7.90;99.90
52731;DHT22;38624;53.242;6.974;2023-05-16T02:02:01;7.80;99.90
52731;DHT22;38624;53.242;6.974;2023-05-16T02:04:26;7.80;99.90
52731;DHT22;38624;53.242;6.974;2023-05-16T02:06:52;7.80;99.90
52731;DHT22;38624;53.242;6.974;2023-05-16T02:09:17;7.80;99.90
52731;DHT22;38624;53.242;6.974;2023-05-16T02:11:43;7.80;99.90
52731;DHT22;38624;53.242;6.974;2023-05-16T02:14:09;7.80;99.90
52731;DHT22;38624;53.242;6.974;2023-05-16T02:16:35;7.70;99.90
52731;DHT22;38624;53.242;6.974;2023-05-16T02:19:01;7.70;99.90
52731;DHT22;38624;53.242;6.974;2023-05-16T02:21:26;7.70;99.90
52731;DHT22;38624;53.242;6.974;2023-05-16T02:23:52;7.70;99.90
52731;DHT22;38624;53.242;6.974;2023-05-16T02:26:17;7.70;99.90
52731;DHT22;38624;53.242;6.974;2023-05-16T02:28:43;7.70;99.90
52731;DHT22;38624;53.242;6.974;2023-05-16T02:31:09;7.70;99.90
52731;DHT22;38624;53.242;6.974;2023-05-16T02:33:34;7.60;99.90
52731;DHT22;38624;53.242;6.974;2023-05-16T02:36:00;7.70;99.90
52731;DHT22;38624;53.242;6.974;2023-05-16T02:38:25;8.10;99.90
52731;DHT22;38624;53.242;6.974;2023-05-16T02:40:51;7.90;99.90
52731;DHT22;38624;53.242;6.974;2023-05-16T02:43:16;8.00;99.90
52731;DHT22;38624;53.242;6.974;2023-05-16T02:45:42;8.10;99.90
52731;DHT22;38624;53.242;6.974;2023-05-16T02:48:08;8.10;99.90
52731;DHT22;38624;53.242;6.974;2023-05-16T02:50:33;8.10;99.90
52731;DHT22;38624;53.242;6.974;2023-05-16T02:52:59;8.00;99.90
52731;DHT22;38624;53.242;6.974;2023-05-16T02:55:27;7.80;99.90
52731;DHT22;38624;53.242;6.974;2023-05-16T02:57:52;7.80;99.90
52731;DHT22;38624;53.242;6.974;2023-05-16T03:00:18;7.80;99.90
52731;DHT22;38624;53.242;6.974;2023-05-16T03:02:44;7.70;99.90
52731;DHT22;38624;53.242;6.974;2023-05-16T03:05:10;7.70;99.90
52731;DHT22;38624;53.242;6.974;2023-05-16T03:07:36;7.60;99.90
52731;DHT22;38624;53.242;6.974;2023-05-16T03:10:02;7.60;99.90
52731;DHT22;38624;53.242;6.974;2023-05-16T03:12:27;7.10;99.90
52731;DHT22;38624;53.242;6.974;2023-05-16T03:14:53;7.60;99.90
52731;DHT22;38624;53.242;6.974;2023-05-16T03:17:18;7.60;99.90
52731;DHT22;38624;53.242;6.974;2023-05-16T03:19:44;7.60;99.90
52731;DHT22;38624;53.242;6.974;2023-05-16T03:22:10;7.60;99.90
52731;DHT22;38624;53.242;6.974;2023-05-16T03:24:35;7.60;99.90
52731;DHT22;38624;53.242;6.974;2023-05-16T03:27:01;7.60;99.90
52731;DHT22;38624;53.242;6.974;2023-05-16T03:29:29;7.60;99.90
52731;DHT22;38624;53.242;6.974;2023-05-16T03:31:54;7.80;99.90
52731;DHT22;38624;53.242;6.974;2023-05-16T03:34:20;8.30;99.90
52731;DHT22;38624;53.242;6.974;2023-05-16T03:36:47;7.90;99.90
52731;DHT22;38624;53.242;6.974;2023-05-16T03:39:12;8.00;99.90
52731;DHT22;38624;53.242;6.974;2023-05-16T03:41:38;8.10;99.90
52731;DHT22;38624;53.242;6.974;2023-05-16T03:44:03;8.10;99.90
52731;DHT22;38624;53.242;6.974;2023-05-16T03:46:29;8.10;99.90
52731;DHT22;38624;53.242;6.974;2023-05-16T03:48:55;8.00;99.90
52731;DHT22;38624;53.242;6.974;2023-05-16T03:51:20;7.90;99.90
52731;DHT22;38624;53.242;6.974;2023-05-16T03:53:46;7.80;99.90
52731;DHT22;38624;53.242;6.974;2023-05-16T03:56:11;7.80;99.90
52731;DHT22;38624;53.242;6.974;2023-05-16T03:58:37;7.70;99.90
52731;DHT22;38624;53.242;6.974;2023-05-16T04:01:03;7.70;99.90
52731;DHT22;38624;53.242;6.974;2023-05-16T04:03:29;7.70;99.90
52731;DHT22;38624;53.242;6.974;2023-05-16T04:05:54;7.60;99.90
52731;DHT22;38624;53.242;6.974;2023-05-16T04:08:20;7.70;99.90
52731;DHT22;38624;53.242;6.974;2023-05-16T04:10:46;7.70;99.90
52731;DHT22;38624;53.242;6.974;2023-05-16T04:13:11;7.70;99.90
52731;DHT22;38624;53.242;6.974;2023-05-16T04:15:37;7.70;99.90
52731;DHT22;38624;53.242;6.974;2023-05-16T04:18:03;7.60;99.90
52731;DHT22;38624;53.242;6.974;2023-05-16T04:20:29;7.70;99.90
52731;DHT22;38624;53.242;6.974;2023-05-16T04:22:55;7.70;99.90
52731;DHT22;38624;53.242;6.974;2023-05-16T04:25:20;7.70;99.90
52731;DHT22;38624;53.242;6.974;2023-05-16T04:27:46;7.70;99.90
52731;DHT22;38624;53.242;6.974;2023-05-16T04:30:11;7.70;99.90
52731;DHT22;38624;53.242;6.974;2023-05-16T04:32:39;7.70;99.90
52731;DHT22;38624;53.242;6.974;2023-05-16T04:35:04;7.80;99.90
52731;DHT22;38624;53.242;6.974;2023-05-16T04:37:30;7.90;99.90
52731;DHT22;38624;53.242;6.974;2023-05-16T04:39:56;7.90;99.90
52731;DHT22;38624;53.242;6.974;2023-05-16T04:42:21;7.90;99.90
52731;DHT22;38624;53.242;6.974;2023-05-16T04:44:47;8.00;99.90
52731;DHT22;38624;53.242;6.974;2023-05-16T04:47:12;8.00;99.90
52731;DHT22;38624;53.242;6.974;2023-05-16T04:49:38;8.00;99.90
52731;DHT22;38624;53.242;6.974;2023-05-16T04:52:05;8.00;99.90
52731;DHT22;38624;53.242;6.974;2023-05-16T04:54:30;8.00;99.90
52731;DHT22;38624;53.242;6.974;2023-05-16T04:56:56;8.20;99.90
52731;DHT22;38624;53.242;6.974;2023-05-16T04:59:22;8.40;99.90
52731;DHT22;38624;53.242;6.974;2023-05-16T05:01:47;8.50;99.90
52731;DHT22;38624;53.242;6.974;2023-05-16T05:04:13;8.60;99.90
52731;DHT22;38624;53.242;6.974;2023-05-16T05:06:38;8.50;99.90
52731;DHT22;38624;53.242;6.974;2023-05-16T05:09:05;8.60;99.90
52731;DHT22;38624;53.242;6.974;2023-05-16T05:11:31;8.50;99.90
52731;DHT22;38624;53.242;6.974;2023-05-16T05:13:56;8.50;99.90
52731;DHT22;38624;53.242;6.974;2023-05-16T05:16:22;8.60;99.90
52731;DHT22;38624;53.242;6.974;2023-05-16T05:18:47;8.70;99.90
52731;DHT22;38624;53.242;6.974;2023-05-16T05:21:13;8.80;99.90
52731;DHT22;38624;53.242;6.974;2023-05-16T05:23:39;9.00;99.90
52731;DHT22;38624;53.242;6.974;2023-05-16T05:26:04;9.00;99.90
52731;DHT22;38624;53.242;6.974;2023-05-16T05:28:30;8.90;99.90
52731;DHT22;38624;53.242;6.974;2023-05-16T05:30:55;8.80;99.90
52731;DHT22;38624;53.242;6.974;2023-05-16T05:33:25;8.70;99.90
52731;DHT22;38624;53.242;6.974;2023-05-16T05:35:50;8.80;99.90
52731;DHT22;38624;53.242;6.974;2023-05-16T05:38:18;8.80;99.90
52731;DHT22;38624;53.242;6.974;2023-05-16T05:40:44;8.80;99.90
52731;DHT22;38624;53.242;6.974;2023-05-16T05:43:10;8.90;99.90
52731;DHT22;38624;53.242;6.974;2023-05-16T05:45:35;9.00;99.90
52731;DHT22;38624;53.242;6.974;2023-05-16T05:48:01;9.10;99.90
52731;DHT22;38624;53.242;6.974;2023-05-16T05:50:27;9.30;99.90
52731;DHT22;38624;53.242;6.974;2023-05-16T05:52:53;9.50;99.90
52731;DHT22;38624;53.242;6.974;2023-05-16T05:55:19;9.60;99.90
52731;DHT22;38624;53.242;6.974;2023-05-16T05:57:45;9.60;99.90
52731;DHT22;38624;53.242;6.974;2023-05-16T06:00:11;9.70;99.90
52731;DHT22;38624;53.242;6.974;2023-05-16T06:02:36;9.70;99.90
52731;DHT22;38624;53.242;6.974;2023-05-16T06:05:02;9.50;99.90
52731;DHT22;38624;53.242;6.974;2023-05-16T06:07:28;9.40;99.90
52731;DHT22;38624;53.242;6.974;2023-05-16T06:09:53;9.30;99.90
52731;DHT22;38624;53.242;6.974;2023-05-16T06:12:19;9.30;99.90
52731;DHT22;38624;53.242;6.974;2023-05-16T06:14:44;9.40;99.90
52731;DHT22;38624;53.242;6.974;2023-05-16T06:17:10;9.40;99.90
52731;DHT22;38624;53.242;6.974;2023-05-16T06:19:35;9.50;99.90
52731;DHT22;38624;53.242;6.974;2023-05-16T06:22:01;9.60;99.90
52731;DHT22;38624;53.242;6.974;2023-05-16T06:24:26;9.60;99.90
52731;DHT22;38624;53.242;6.974;2023-05-16T06:26:54;9.70;99.90
52731;DHT22;38624;53.242;6.974;2023-05-16T06:29:19;9.80;99.90
52731;DHT22;38624;53.242;6.974;2023-05-16T06:31:45;9.90;99.90
52731;DHT22;38624;53.242;6.974;2023-05-16T06:34:11;9.90;99.90
52731;DHT22;38624;53.242;6.974;2023-05-16T06:36:37;10.10;99.90
52731;DHT22;38624;53.242;6.974;2023-05-16T06:39:02;10.10;99.90
52731;DHT22;38624;53.242;6.974;2023-05-16T06:41:29;10.30;99.90
52731;DHT22;38624;53.242;6.974;2023-05-16T06:43:55;10.30;99.90
52731;DHT22;38624;53.242;6.974;2023-05-16T06:46:20;10.20;99.90
52731;DHT22;38624;53.242;6.974;2023-05-16T06:48:46;10.00;99.90
52731;DHT22;38624;53.242;6.974;2023-05-16T06:51:12;9.80;99.90
52731;DHT22;38624;53.242;6.974;2023-05-16T06:53:37;9.80;99.90
52731;DHT22;38624;53.242;6.974;2023-05-16T06:56:03;9.90;99.90
52731;DHT22;38624;53.242;6.974;2023-05-16T06:58:28;10.00;99.90
52731;DHT22;38624;53.242;6.974;2023-05-16T07:00:54;10.10;99.90
52731;DHT22;38624;53.242;6.974;2023-05-16T07:03:20;10.20;99.90
52731;DHT22;38624;53.242;6.974;2023-05-16T07:05:46;10.40;99.90
52731;DHT22;38624;53.242;6.974;2023-05-16T07:08:11;10.70;99.90
52731;DHT22;38624;53.242;6.974;2023-05-16T07:10:37;11.10;99.90
52731;DHT22;38624;53.242;6.974;2023-05-16T07:13:03;11.40;99.90
52731;DHT22;38624;53.242;6.974;2023-05-16T07:15:29;11.50;99.90
52731;DHT22;38624;53.242;6.974;2023-05-16T07:17:55;11.50;99.90
52731;DHT22;38624;53.242;6.974;2023-05-16T07:20:21;11.20;99.90
52731;DHT22;38624;53.242;6.974;2023-05-16T07:22:47;10.90;99.90
52731;DHT22;38624;53.242;6.974;2023-05-16T07:25:12;10.70;99.90
52731;DHT22;38624;53.242;6.974;2023-05-16T07:27:40;10.80;99.90
52731;DHT22;38624;53.242;6.974;2023-05-16T07:30:07;10.80;99.90
52731;DHT22;38624;53.242;6.974;2023-05-16T07:32:33;11.00;99.90
52731;DHT22;38624;53.242;6.974;2023-05-16T07:34:59;11.10;99.90
52731;DHT22;38624;53.242;6.974;2023-05-16T07:37:24;11.30;99.90
52731;DHT22;38624;53.242;6.974;2023-05-16T07:39:50;11.60;99.90
52731;DHT22;38624;53.242;6.974;2023-05-16T07:42:16;11.40;99.90
52731;DHT22;38624;53.242;6.974;2023-05-16T07:44:41;11.30;99.90
52731;DHT22;38624;53.242;6.974;2023-05-16T07:47:07;11.30;99.90
52731;DHT22;38624;53.242;6.974;2023-05-16T07:49:32;11.40;99.90
52731;DHT22;38624;53.242;6.974;2023-05-16T07:51:58;11.60;99.90
52731;DHT22;38624;53.242;6.974;2023-05-16T07:54:24;11.80;99.90
52731;DHT22;38624;53.242;6.974;2023-05-16T07:56:49;11.70;99.90
52731;DHT22;38624;53.242;6.974;2023-05-16T07:59:15;11.80;99.90
52731;DHT22;38624;53.242;6.974;2023-05-16T08:01:41;11.90;99.90
52731;DHT22;38624;53.242;6.974;2023-05-16T08:04:06;12.00;99.90
52731;DHT22;38624;53.242;6.974;2023-05-16T08:06:32;11.90;99.90
52731;DHT22;38624;53.242;6.974;2023-05-16T08:08:58;12.20;99.90
52731;DHT22;38624;53.242;6.974;2023-05-16T08:11:24;12.20;99.90
52731;DHT22;38624;53.242;6.974;2023-05-16T08:13:50;12.10;99.90
52731;DHT22;38624;53.242;6.974;2023-05-16T08:16:15;11.90;99.90
52731;DHT22;38624;53.242;6.974;2023-05-16T08:18:41;11.80;99.90
52731;DHT22;38624;53.242;6.974;2023-05-16T08:21:07;12.00;99.90
52731;DHT22;38624;53.242;6.974;2023-05-16T08:23:33;12.30;99.90
52731;DHT22;38624;53.242;6.974;2023-05-16T08:25:59;12.60;99.90
52731;DHT22;38624;53.242;6.974;2023-05-16T08:28:24;12.50;99.90
52731;DHT22;38624;53.242;6.974;2023-05-16T08:30:50;12.60;99.90
52731;DHT22;38624;53.242;6.974;2023-05-16T08:33:15;12.70;99.90
52731;DHT22;38624;53.242;6.974;2023-05-16T08:35:42;12.60;99.90
52731;DHT22;38624;53.242;6.974;2023-05-16T08:38:08;12.30;99.90
52731;DHT22;38624;53.242;6.974;2023-05-16T08:40:33;12.30;99.90
52731;DHT22;38624;53.242;6.974;2023-05-16T08:42:59;12.60;99.90
52731;DHT22;38624;53.242;6.974;2023-05-16T08:45:25;12.70;99.90
52731;DHT22;38624;53.242;6.974;2023-05-16T08:47:53;12.60;99.90
52731;DHT22;38624;53.242;6.974;2023-05-16T08:50:18;12.20;99.90
52731;DHT22;38624;53.242;6.974;2023-05-16T08:52:44;12.00;99.90
52731;DHT22;38624;53.242;6.974;2023-05-16T08:55:11;12.20;99.90
52731;DHT22;38624;53.242;6.974;2023-05-16T08:57:38;12.50;99.90
52731;DHT22;38624;53.242;6.974;2023-05-16T09:00:08;12.50;99.90
52731;DHT22;38624;53.242;6.974;2023-05-16T09:02:40;12.60;99.90
52731;DHT22;38624;53.242;6.974;2023-05-16T09:05:10;12.60;99.90
52731;DHT22;38624;53.242;6.974;2023-05-16T09:07:36;12.30;99.90
52731;DHT22;38624;53.242;6.974;2023-05-16T09:10:01;12.20;99.90
52731;DHT22;38624;53.242;6.974;2023-05-16T09:12:27;12.50;99.90
52731;DHT22;38624;53.242;6.974;2023-05-16T09:14:53;12.80;99.90
52731;DHT22;38624;53.242;6.974;2023-05-16T09:17:18;12.90;99.90
52731;DHT22;38624;53.242;6.974;2023-05-16T09:19:45;12.90;99.90
52731;DHT22;38624;53.242;6.974;2023-05-16T09:22:13;12.90;99.90
52731;DHT22;38624;53.242;6.974;2023-05-16T09:24:42;12.70;99.90
52731;DHT22;38624;53.242;6.974;2023-05-16T09:29:34;12.70;99.90
52731;DHT22;38624;53.242;6.974;2023-05-16T09:32:17;13.10;99.90
52731;DHT22;38624;53.242;6.974;2023-05-16T09:34:44;13.10;99.90
52731;DHT22;38624;53.242;6.974;2023-05-16T09:37:12;12.50;99.90
52731;DHT22;38624;53.242;6.974;2023-05-16T09:39:55;12.40;99.90
52731;DHT22;38624;53.242;6.974;2023-05-16T09:42:22;12.30;99.90
52731;DHT22;38624;53.242;6.974;2023-05-16T09:44:48;12.50;99.90
52731;DHT22;38624;53.242;6.974;2023-05-16T09:47:15;12.10;99.90
52731;DHT22;38624;53.242;6.974;2023-05-16T09:49:42;11.30;99.90
52731;DHT22;38624;53.242;6.974;2023-05-16T09:52:08;10.90;99.90
52731;DHT22;38624;53.242;6.974;2023-05-16T09:54:34;10.60;99.90
52731;DHT22;38624;53.242;6.974;2023-05-16T09:57:00;10.30;99.90
52731;DHT22;38624;53.242;6.974;2023-05-16T09:59:29;9.90;99.90
52731;DHT22;38624;53.242;6.974;2023-05-16T10:01:58;9.50;99.90
52731;DHT22;38624;53.242;6.974;2023-05-16T10:04:24;9.20;99.90
52731;DHT22;38624;53.242;6.974;2023-05-16T10:06:50;9.20;99.90
52731;DHT22;38624;53.242;6.974;2023-05-16T10:09:16;9.30;99.90
52731;DHT22;38624;53.242;6.974;2023-05-16T10:11:42;9.30;99.90
52731;DHT22;38624;53.242;6.974;2023-05-16T10:14:10;9.60;99.90
52731;DHT22;38624;53.242;6.974;2023-05-16T10:16:36;9.90;99.90
52731;DHT22;38624;53.242;6.974;2023-05-16T10:19:02;10.00;99.90
52731;DHT22;38624;53.242;6.974;2023-05-16T10:21:28;10.20;99.90
52731;DHT22;38624;53.242;6.974;2023-05-16T10:23:55;10.40;99.90
52731;DHT22;38624;53.242;6.974;2023-05-16T10:26:22;10.70;99.90
52731;DHT22;38624;53.242;6.974;2023-05-16T10:28:48;11.00;99.90
52731;DHT22;38624;53.242;6.974;2023-05-16T10:31:14;11.20;99.90
52731;DHT22;38624;53.242;6.974;2023-05-16T10:33:39;11.40;99.90
52731;DHT22;38624;53.242;6.974;2023-05-16T10:36:06;11.70;99.90
52731;DHT22;38624;53.242;6.974;2023-05-16T10:38:32;12.10;99.90
52731;DHT22;38624;53.242;6.974;2023-05-16T10:40:58;12.40;99.90
52731;DHT22;38624;53.242;6.974;2023-05-16T10:43:25;12.40;99.90
52731;DHT22;38624;53.242;6.974;2023-05-16T10:46:25;11.70;99.90
52731;DHT22;38624;53.242;6.974;2023-05-16T10:48:43;10.70;99.90
52731;DHT22;38624;53.242;6.974;2023-05-16T10:53:46;10.40;99.90
52731;DHT22;38624;53.242;6.974;2023-05-16T10:56:12;10.90;99.90
52731;DHT22;38624;53.242;6.974;2023-05-16T11:01:19;11.10;99.90
52731;DHT22;38624;53.242;6.974;2023-05-16T11:06:30;10.90;99.90
52731;DHT22;38624;53.242;6.974;2023-05-16T11:11:38;10.40;99.90
52731;DHT22;38624;53.242;6.974;2023-05-16T11:14:04;12.60;99.90
52731;DHT22;38624;53.242;6.974;2023-05-16T11:16:30;14.70;99.90
52731;DHT22;38624;53.242;6.974;2023-05-16T11:19:03;16.60;99.90
52731;DHT22;38624;53.242;6.974;2023-05-16T11:22:03;18.00;99.90
52731;DHT22;38624;53.242;6.974;2023-05-16T11:24:27;18.70;99.90
52731;DHT22;38624;53.242;6.974;2023-05-16T11:26:54;16.90;99.90
52731;DHT22;38624;53.242;6.974;2023-05-16T11:29:19;16.00;99.90
52731;DHT22;38624;53.242;6.974;2023-05-16T11:31:46;17.60;99.90
52731;DHT22;38624;53.242;6.974;2023-05-16T11:34:12;19.20;99.90
52731;DHT22;38624;53.242;6.974;2023-05-16T11:36:38;20.40;97.80
52731;DHT22;38624;53.242;6.974;2023-05-16T11:39:05;18.60;95.20
52731;DHT22;38624;53.242;6.974;2023-05-16T11:41:31;18.50;95.70
52731;DHT22;38624;53.242;6.974;2023-05-16T11:43:57;19.70;94.90
52731;DHT22;38624;53.242;6.974;2023-05-16T11:46:22;20.70;95.30
52731;DHT22;38624;53.242;6.974;2023-05-16T11:48:48;19.20;93.90
52731;DHT22;38624;53.242;6.974;2023-05-16T11:51:16;18.60;93.50
52731;DHT22;38624;53.242;6.974;2023-05-16T11:53:43;18.10;94.70
52731;DHT22;38624;53.242;6.974;2023-05-16T11:56:09;19.90;93.50
52731;DHT22;38624;53.242;6.974;2023-05-16T11:58:35;21.10;91.20
52731;DHT22;38624;53.242;6.974;2023-05-16T12:01:02;22.50;90.60
52731;DHT22;38624;53.242;6.974;2023-05-16T12:03:28;22.50;89.90
52731;DHT22;38624;53.242;6.974;2023-05-16T12:05:57;23.30;81.10
52731;DHT22;38624;53.242;6.974;2023-05-16T12:08:23;22.70;74.80
52731;DHT22;38624;53.242;6.974;2023-05-16T12:10:52;21.00;76.20
52731;DHT22;38624;53.242;6.974;2023-05-16T12:13:18;21.30;76.60
52731;DHT22;38624;53.242;6.974;2023-05-16T12:15:44;20.90;78.30
52731;DHT22;38624;53.242;6.974;2023-05-16T12:18:10;19.70;77.30
52731;DHT22;38624;53.242;6.974;2023-05-16T12:20:36;19.10;80.30
52731;DHT22;38624;53.242;6.974;2023-05-16T12:23:02;18.30;77.40
52731;DHT22;38624;53.242;6.974;2023-05-16T12:25:29;17.20;81.70
52731;DHT22;38624;53.242;6.974;2023-05-16T12:27:57;18.30;85.00
52731;DHT22;38624;53.242;6.974;2023-05-16T12:30:23;19.80;81.00
52731;DHT22;38624;53.242;6.974;2023-05-16T12:33:02;20.70;81.30
52731;DHT22;38624;53.242;6.974;2023-05-16T12:35:29;19.20;76.00
52731;DHT22;38624;53.242;6.974;2023-05-16T12:37:55;20.20;77.30
52731;DHT22;38624;53.242;6.974;2023-05-16T12:40:20;21.10;74.40
52731;DHT22;38624;53.242;6.974;2023-05-16T12:42:50;19.90;75.30
52731;DHT22;38624;53.242;6.974;2023-05-16T12:45:17;18.80;76.30
52731;DHT22;38624;53.242;6.974;2023-05-16T12:47:43;17.60;79.90
52731;DHT22;38624;53.242;6.974;2023-05-16T12:50:09;17.10;83.60
52731;DHT22;38624;53.242;6.974;2023-05-16T12:52:37;16.80;87.60
52731;DHT22;38624;53.242;6.974;2023-05-16T12:55:02;16.90;86.90
52731;DHT22;38624;53.242;6.974;2023-05-16T12:57:28;18.70;86.10
52731;DHT22;38624;53.242;6.974;2023-05-16T12:59:53;19.50;85.60
52731;DHT22;38624;53.242;6.974;2023-05-16T13:02:19;19.50;84.80
52731;DHT22;38624;53.242;6.974;2023-05-16T13:04:46;18.90;85.60
52731;DHT22;38624;53.242;6.974;2023-05-16T13:07:11;19.80;88.40
52731;DHT22;38624;53.242;6.974;2023-05-16T13:09:37;19.90;83.50
52731;DHT22;38624;53.242;6.974;2023-05-16T13:12:03;19.20;82.70
52731;DHT22;38624;53.242;6.974;2023-05-16T13:14:28;18.80;84.90
52731;DHT22;38624;53.242;6.974;2023-05-16T13:16:54;19.60;83.50
52731;DHT22;38624;53.242;6.974;2023-05-16T13:19:19;18.70;79.20
52731;DHT22;38624;53.242;6.974;2023-05-16T13:21:47;18.50;80.40
52731;DHT22;38624;53.242;6.974;2023-05-16T13:24:12;18.00;81.00
52731;DHT22;38624;53.242;6.974;2023-05-16T13:26:38;17.20;83.50
52731;DHT22;38624;53.242;6.974;2023-05-16T13:29:03;16.90;84.90
52731;DHT22;38624;53.242;6.974;2023-05-16T13:31:29;16.30;87.60
52731;DHT22;38624;53.242;6.974;2023-05-16T13:33:55;16.40;90.30
52731;DHT22;38624;53.242;6.974;2023-05-16T13:36:20;16.10;88.10
52731;DHT22;38624;53.242;6.974;2023-05-16T13:38:46;17.10;87.50
52731;DHT22;38624;53.242;6.974;2023-05-16T13:41:12;18.10;85.10
52731;DHT22;38624;53.242;6.974;2023-05-16T13:43:38;18.90;81.60
52731;DHT22;38624;53.242;6.974;2023-05-16T13:46:04;20.70;80.50
52731;DHT22;38624;53.242;6.974;2023-05-16T13:48:29;20.10;78.80
52731;DHT22;38624;53.242;6.974;2023-05-16T13:50:55;19.70;77.20
52731;DHT22;38624;53.242;6.974;2023-05-16T13:53:21;18.70;80.80
52731;DHT22;38624;53.242;6.974;2023-05-16T13:55:46;18.70;82.60
52731;DHT22;38624;53.242;6.974;2023-05-16T13:58:12;19.70;85.10
52731;DHT22;38624;53.242;6.974;2023-05-16T14:00:38;20.80;79.40
52731;DHT22;38624;53.242;6.974;2023-05-16T14:03:03;20.60;76.60
52731;DHT22;38624;53.242;6.974;2023-05-16T14:05:29;21.10;75.40
52731;DHT22;38624;53.242;6.974;2023-05-16T14:07:54;19.80;77.80
52731;DHT22;38624;53.242;6.974;2023-05-16T14:10:20;19.40;78.30
52731;DHT22;38624;53.242;6.974;2023-05-16T14:12:46;19.30;78.60
52731;DHT22;38624;53.242;6.974;2023-05-16T14:15:11;18.30;78.30
52731;DHT22;38624;53.242;6.974;2023-05-16T14:17:37;18.40;79.60
52731;DHT22;38624;53.242;6.974;2023-05-16T14:20:02;19.50;80.10
52731;DHT22;38624;53.242;6.974;2023-05-16T14:22:33;19.40;79.50
52731;DHT22;38624;53.242;6.974;2023-05-16T14:24:59;18.80;77.80
52731;DHT22;38624;53.242;6.974;2023-05-16T14:27:24;17.80;78.80
52731;DHT22;38624;53.242;6.974;2023-05-16T14:29:50;17.00;80.80
52731;DHT22;38624;53.242;6.974;2023-05-16T14:32:16;16.70;81.50
52731;DHT22;38624;53.242;6.974;2023-05-16T14:34:42;16.80;84.20
52731;DHT22;38624;53.242;6.974;2023-05-16T14:37:08;16.90;82.50
52731;DHT22;38624;53.242;6.974;2023-05-16T14:39:34;16.60;82.50
52731;DHT22;38624;53.242;6.974;2023-05-16T14:42:00;16.20;85.40
52731;DHT22;38624;53.242;6.974;2023-05-16T14:44:25;15.90;87.30
52731;DHT22;38624;53.242;6.974;2023-05-16T14:46:51;15.60;88.70
52731;DHT22;38624;53.242;6.974;2023-05-16T14:49:17;15.40;90.20
52731;DHT22;38624;53.242;6.974;2023-05-16T14:51:42;15.20;91.30
52731;DHT22;38624;53.242;6.974;2023-05-16T14:54:13;15.00;90.80
52731;DHT22;38624;53.242;6.974;2023-05-16T14:56:39;15.50;91.20
52731;DHT22;38624;53.242;6.974;2023-05-16T14:59:05;15.30;92.20
52731;DHT22;38624;53.242;6.974;2023-05-16T15:01:30;15.00;99.90
52731;DHT22;38624;53.242;6.974;2023-05-16T15:03:56;14.60;99.90
52731;DHT22;38624;53.242;6.974;2023-05-16T15:06:22;14.80;99.90
52731;DHT22;38624;53.242;6.974;2023-05-16T15:08:47;16.00;99.90
52731;DHT22;38624;53.242;6.974;2023-05-16T15:11:13;17.20;96.00
52731;DHT22;38624;53.242;6.974;2023-05-16T15:13:39;17.80;92.50
52731;DHT22;38624;53.242;6.974;2023-05-16T15:16:04;17.80;90.90
52731;DHT22;38624;53.242;6.974;2023-05-16T15:18:30;18.00;89.90
52731;DHT22;38624;53.242;6.974;2023-05-16T15:20:56;18.60;90.10
52731;DHT22;38624;53.242;6.974;2023-05-16T15:23:21;18.60;87.70
52731;DHT22;38624;53.242;6.974;2023-05-16T15:25:47;18.90;89.20
52731;DHT22;38624;53.242;6.974;2023-05-16T15:28:13;18.10;86.70
52731;DHT22;38624;53.242;6.974;2023-05-16T15:30:39;17.60;87.60
52731;DHT22;38624;53.242;6.974;2023-05-16T15:33:04;17.30;88.20
52731;DHT22;38624;53.242;6.974;2023-05-16T15:35:30;16.70;89.50
52731;DHT22;38624;53.242;6.974;2023-05-16T15:37:55;16.20;90.50
52731;DHT22;38624;53.242;6.974;2023-05-16T15:40:23;16.70;91.20
52731;DHT22;38624;53.242;6.974;2023-05-16T15:42:49;17.50;90.40
52731;DHT22;38624;53.242;6.974;2023-05-16T15:45:14;17.80;89.30
52731;DHT22;38624;53.242;6.974;2023-05-16T15:47:40;17.30;87.70
52731;DHT22;38624;53.242;6.974;2023-05-16T15:50:06;17.20;89.80
52731;DHT22;38624;53.242;6.974;2023-05-16T15:52:31;18.10;87.40
52731;DHT22;38624;53.242;6.974;2023-05-16T15:54:57;18.60;86.20
52731;DHT22;38624;53.242;6.974;2023-05-16T15:57:22;17.70;84.30
52731;DHT22;38624;53.242;6.974;2023-05-16T15:59:48;17.50;87.00
52731;DHT22;38624;53.242;6.974;2023-05-16T16:02:14;17.10;87.30
52731;DHT22;38624;53.242;6.974;2023-05-16T16:04:40;16.50;88.50